Albury
Weather
Information

and Archive.
Albury Local Internet Skycam This service provided and funded by Albury Local Internet

Help keep our weatherstation running:

Lavington Weatherstation live data - Conditions of Use

Last updated on 30-Nov-2021 at 16:29:09
Temperature
  Currently 28.6 degrees C
  Apparent Temperature ("Wind Chill") is 31.2 degrees C
  Today has ranged from 13.3 at 06:17 to 29.2 at 14:42
  Yesterday ranged from  0.0 at 19:45 to 26.7 at 15:42
Wind
  Now:    6.7kmh, gusting to  14.8kmh from 142 degrees ( SE)
  Hour:   8.2kmh, gusting to  23.6kmh
Rainfall
   0.0mm Midnight to Midnight (ie, yesterday)
   0.0mm Since Midnight (ie, so far today)
   0.0mm 9am yesterday to 9am today
 154.4mm Total this month
Misc items
  Relative humidity is 61%
  Dewpoint is 20.3 deg C
  Estimated Cloudbase is 3400 feet
  Barometric Pressure is 1013.0 mbar
  Solar Insolation: 675 W/m^2
  There should be 978 W/m^2 available to a tracking array
  The sun is 43.6 degrees above the horizon bearing 273.6 degrees.
  UV Index: 5.5 (Moderate)
  Dust: PM2.5 0.8ug/m3 PM10 3.3ug/m3   AQI 3 (Good)
Top Solar flares in the last 24 hours

Last 24 hours Temperature Graph (click graph for history)
temperature

Last 24 hours Dynamic Wind display (click image for 4-hour image):
Wind Rose

Current Yarrawonga Weather Radar and Infrared Satellite Images from the BOM.

Hourly summaries in the tables below are cumulative and peak values
for the preceding hour, and instantaneous values at the hour.
So far today, 30-Nov-2021
Time   Barom.  Wind + Gust    Direction   RH   Rain    Temp.  Minimum    Maximum
01:00  1016.0   1.2   5.7kmh  142 ( SE)  100%  0.0mm   17.1  16.9@00:42 18.4@00:07
02:00  1016.0   0.6   3.8kmh  155 (SSE)  100%  0.0mm   17.0  16.6@01:14 17.4@01:37
03:00  1016.0   0.8   3.8kmh  155 (SSE)  100%  0.0mm   15.8  15.6@02:58 17.1@02:02
04:00  1016.0   1.5  22.4kmh  224 ( SW)  100%  0.0mm   14.4  14.3@03:51 16.3@03:02
05:00  1016.0   1.7  12.2kmh  146 ( SE)  100%  0.0mm   14.8  13.7@04:18 15.0@04:26
06:00  1017.0   4.5  22.4kmh  142 ( SE)  100%  0.0mm   14.0  14.1@05:59 15.1@05:18
07:00  1017.0   3.2  14.6kmh  109 (ESE)  100%  0.0mm   15.6  13.3@06:17 15.5@06:59
08:00  1018.0   3.2  10.9kmh  136 ( SE)  100%  0.0mm   17.4  15.6@07:00 17.8@07:49
09:00  1018.0   4.6  11.2kmh  110 (ESE)  100%  0.0mm   20.6  17.4@08:00 20.8@08:58
10:00  1017.0   5.2  22.4kmh  142 ( SE)  100%  0.0mm   23.4  20.2@09:03 23.2@09:52
11:00  1017.0   4.5  14.4kmh  137 ( SE)  100%  0.0mm   24.8  22.7@10:05 25.7@10:56
12:00  1016.0   4.4  22.4kmh  155 (SSE)   95%  0.0mm   24.2  24.0@11:55 27.2@11:46
13:00  1016.0   6.5  18.4kmh  183 ( S )   78%  0.0mm   26.2  24.2@12:00 27.7@12:55
14:00  1015.0   8.8  23.4kmh  167 (SSE)   74%  0.0mm   27.7  25.7@13:05 28.4@13:31
15:00  1014.0   6.5  19.2kmh   56 ( NE)   63%  0.0mm   28.4  27.1@14:49 29.2@14:42
16:00  1013.0   8.3  23.7kmh  103 (ESE)   60%  0.0mm   28.1  27.2@15:09 29.0@15:43
16:29  1013.0   8.2  23.6kmh  139 ( SE)   61%  0.0mm   28.6  27.6@16:05 29.1@16:13


Summary for yesterday, 29-Nov-2021
Time   Barom.  Wind + Gust    Direction   RH   Rain    Temp.  Minimum    Maximum
01:00  1019.0   5.0  22.4kmh   20 (NNE)  100%  0.0mm   14.5  14.1@00:44 15.8@00:03
02:00  1019.0   2.7  11.0kmh   37 ( NE)  100%  0.0mm   14.8  13.9@01:46 14.9@01:54
03:00  1018.0   2.8  18.4kmh   24 (NNE)  100%  0.0mm   14.5  13.8@02:37 15.0@02:07
04:00  1018.0   7.1  20.7kmh   17 (NNE)  100%  0.0mm   13.0  13.5@03:59 14.8@03:11
05:00  1018.0   1.6  19.2kmh  297 (WNW)  100%  0.0mm   12.7  12.6@04:53 14.0@04:27
06:00  1019.0   4.5  10.0kmh  325 ( NW)  100%  0.0mm   12.6  12.4@05:21 13.3@05:40
07:00  1020.0   2.1  22.4kmh   41 ( NE)  100%  0.0mm   13.6  12.2@06:16 13.6@06:59
08:00  1020.0   3.8  14.9kmh   42 ( NE)  100%  0.0mm   16.5  13.6@07:00 16.6@07:51
09:00  1020.0   7.3  15.8kmh   81 ( E )  100%  0.0mm   19.2  16.5@08:00 19.2@08:59
10:00  1020.0   4.1  11.1kmh  346 (NNW)  100%  0.0mm   21.3  19.0@09:08 21.0@09:59
11:00  1019.0   4.2  15.0kmh  189 ( S )  100%  0.0mm   22.6  19.9@10:12 22.0@10:36
12:00  1019.0   5.1  17.4kmh   58 (ENE)   98%  0.0mm   23.6  22.0@11:37 23.8@11:59
13:00  1018.0   4.9  22.4kmh  286 (WNW)   93%  0.0mm   24.3  22.6@12:31 25.1@12:49
14:00  1018.0   5.4  15.0kmh  177 ( S )   96%  0.0mm   22.7  22.1@13:31 25.7@13:07
15:00  1017.0   3.9  17.7kmh  182 ( S )   89%  0.0mm   25.1  22.4@14:06 26.4@14:50
16:00  1016.0   6.7  16.7kmh  209 (SSW)   77%  0.0mm   25.9  24.8@15:01 26.7@15:42
17:00  1016.0   5.2  22.4kmh  303 (WNW)   69%  0.0mm   26.5  25.3@16:30 26.6@16:20
18:00  1015.0   6.6  18.8kmh  225 ( SW)   70%  0.0mm   25.3  25.3@17:16 26.7@17:01
19:00  1015.0   6.2  18.8kmh  200 (SSW)   73%  0.0mm   24.8  24.8@18:41 25.9@18:22
20:00  1016.0   4.4  22.4kmh  244 (WSW)   80%  0.0mm   23.0   0.0@19:45 24.9@19:20
21:00  1016.0   3.2  22.4kmh   63 (ENE)   93%  0.0mm   20.8  20.5@20:36 23.0@20:00
22:00  1016.0   5.1   7.8kmh   59 (ENE)   91%  0.0mm   20.9  20.5@21:14 21.2@21:04
23:00  1016.0   3.4   8.9kmh  126 ( SE)  100%  0.0mm   19.3  18.3@22:39 21.1@22:07
00:00  1017.0   2.6   6.7kmh   12 (NNE)  100%  0.0mm   17.7  17.4@23:52 19.9@23:25